Time;durP1;ratioP1;P1;durP2;ratioP2;P2;SDS_P1;SDS_P2;PMS_P1;PMS_P2;Temp;Humidity;BMP_temperature;BMP_pressure;BME280_temperature;BME280_humidity;BME280_pressure;Samples;Min_cycle;Max_cycle;Signal;HPM_P1;HPM_P2
2023/05/21 00:00:14;;;;;;;12.45;7.45;;;13.10;99.90;;;;;;4953996;29;20035;-67
2023/05/21 00:02:40;;;;;;;14.68;8.50;;;13.00;99.90;;;;;;4951979;29;20035;-66
2023/05/21 00:05:10;;;;;;;17.70;10.38;;;13.00;99.90;;;;;;4949688;28;20027;-67
2023/05/21 00:07:36;;;;;;;17.60;10.25;;;13.00;99.90;;;;;;4953089;29;20031;-67
2023/05/21 00:10:01;;;;;;;21.83;10.88;;;13.00;99.90;;;;;;4952689;29;20425;-67
2023/05/21 00:12:27;;;;;;;22.38;11.52;;;12.90;99.90;;;;;;4929482;28;20047;-68
2023/05/21 00:14:53;;;;;;;15.25;10.38;;;12.80;99.90;;;;;;4945309;28;20086;-67
2023/05/21 00:17:18;;;;;;;18.20;10.52;;;12.70;99.90;;;;;;4935525;28;20031;-68
2023/05/21 00:19:44;;;;;;;18.98;10.23;;;12.70;99.90;;;;;;4950679;29;20043;-66
2023/05/21 00:22:09;;;;;;;17.10;10.65;;;12.70;99.90;;;;;;4949402;29;20086;-66
2023/05/21 00:24:35;;;;;;;16.38;10.63;;;12.70;99.90;;;;;;4975212;23;20646;-64
2023/05/21 00:27:01;;;;;;;13.73;8.68;;;12.70;99.90;;;;;;4989872;28;20061;-65
2023/05/21 00:29:28;;;;;;;18.23;8.98;;;12.60;99.90;;;;;;4972526;28;20080;-62
2023/05/21 00:31:54;;;;;;;14.60;8.80;;;12.60;99.90;;;;;;4992065;28;20042;-63
2023/05/21 00:34:20;;;;;;;18.15;9.55;;;12.60;99.90;;;;;;4992411;28;20034;-63
2023/05/21 00:36:45;;;;;;;17.35;9.70;;;12.50;99.90;;;;;;4992050;28;20038;-63
2023/05/21 00:39:12;;;;;;;19.00;10.07;;;12.50;99.90;;;;;;4989425;28;20023;-62
2023/05/21 00:41:41;;;;;;;19.63;10.38;;;12.60;99.90;;;;;;4992931;28;20018;-63
2023/05/21 00:44:07;;;;;;;22.70;11.43;;;12.60;99.90;;;;;;4989745;28;20026;-63
2023/05/21 00:46:33;;;;;;;18.35;9.75;;;12.60;99.90;;;;;;4993325;28;20054;-63
2023/05/21 00:49:00;;;;;;;19.85;10.20;;;12.60;99.90;;;;;;4986488;28;20057;-63
2023/05/21 00:51:29;;;;;;;17.25;9.02;;;12.60;99.90;;;;;;4968606;28;20058;-64
2023/05/21 00:53:55;;;;;;;18.58;10.27;;;12.70;99.90;;;;;;4991114;28;20022;-64
2023/05/21 00:56:22;;;;;;;21.52;11.15;;;12.80;99.90;;;;;;4973864;28;20504;-64
2023/05/21 00:58:52;;;;;;;17.35;10.07;;;12.80;99.90;;;;;;4990246;28;20084;-64
2023/05/21 01:01:18;;;;;;;17.08;10.15;;;12.80;99.90;;;;;;4990303;28;20085;-64
2023/05/21 01:03:43;;;;;;;16.83;9.60;;;12.80;99.90;;;;;;4989648;28;20034;-64
2023/05/21 01:06:10;;;;;;;17.38;10.07;;;12.80;99.90;;;;;;4986363;28;20611;-64
2023/05/21 01:08:37;;;;;;;15.77;9.68;;;12.80;99.90;;;;;;4984370;28;20066;-64
2023/05/21 01:11:05;;;;;;;19.40;9.68;;;12.70;99.90;;;;;;4984386;28;20027;-64
2023/05/21 01:13:32;;;;;;;17.85;10.02;;;12.80;99.90;;;;;;4966343;28;20273;-63
2023/05/21 01:16:00;;;;;;;16.00;9.30;;;12.80;99.90;;;;;;4984524;28;20448;-64
2023/05/21 01:18:26;;;;;;;25.70;10.18;;;12.80;99.90;;;;;;4979762;28;20496;-63
2023/05/21 01:20:52;;;;;;;16.40;9.68;;;12.80;99.90;;;;;;4974012;28;20038;-65
2023/05/21 01:23:19;;;;;;;18.33;9.57;;;12.80;99.90;;;;;;4983646;28;20546;-64
2023/05/21 01:25:45;;;;;;;17.05;9.80;;;12.80;99.90;;;;;;4976883;28;20035;-64
2023/05/21 01:28:11;;;;;;;17.38;9.52;;;12.80;99.90;;;;;;4969198;28;20039;-64
2023/05/21 01:30:39;;;;;;;18.95;9.55;;;12.80;99.90;;;;;;4978748;28;20402;-64
2023/05/21 01:33:14;;;;;;;19.85;9.70;;;12.80;99.90;;;;;;4984611;28;20034;-64
2023/05/21 01:35:48;;;;;;;17.95;9.73;;;12.80;99.90;;;;;;4981092;28;20053;-64
2023/05/21 01:38:23;;;;;;;14.93;8.73;;;12.80;99.90;;;;;;4982747;28;20054;-64
2023/05/21 01:40:53;;;;;;;21.75;10.70;;;12.80;99.90;;;;;;4987437;28;20023;-64
2023/05/21 01:43:19;;;;;;;24.00;10.52;;;12.80;99.90;;;;;;4978869;28;20018;-64
2023/05/21 01:45:47;;;;;;;13.90;8.13;;;12.80;99.90;;;;;;4993673;28;20107;-64
2023/05/21 01:48:13;;;;;;;16.25;9.32;;;12.70;99.90;;;;;;4989284;28;20431;-64
2023/05/21 01:50:40;;;;;;;20.95;10.52;;;12.70;99.90;;;;;;4991494;28;20400;-64
2023/05/21 01:53:06;;;;;;;15.70;9.57;;;12.70;99.90;;;;;;4982843;28;20077;-65
2023/05/21 01:55:32;;;;;;;20.08;9.90;;;12.70;99.90;;;;;;4979525;28;20093;-65
2023/05/21 01:57:59;;;;;;;21.08;9.10;;;12.70;99.90;;;;;;4983612;28;20034;-64
2023/05/21 02:00:29;;;;;;;16.35;9.32;;;12.70;99.90;;;;;;4989520;28;20101;-65
2023/05/21 02:02:55;;;;;;;15.38;8.73;;;12.70;99.90;;;;;;4989477;28;20121;-64
2023/05/21 02:05:21;;;;;;;17.35;9.27;;;12.70;99.90;;;;;;4986762;28;20603;-65
2023/05/21 02:07:48;;;;;;;18.60;9.60;;;12.60;99.90;;;;;;4986388;28;20041;-71
2023/05/21 02:10:14;;;;;;;14.40;8.93;;;12.60;99.90;;;;;;4980220;28;20050;-63
2023/05/21 02:12:40;;;;;;;16.30;9.48;;;12.60;99.90;;;;;;4963042;28;20161;-64
2023/05/21 02:15:06;;;;;;;16.60;9.23;;;12.60;99.90;;;;;;4982570;28;20114;-65
2023/05/21 02:17:34;;;;;;;20.15;9.80;;;12.60;99.90;;;;;;4988714;28;20034;-65
2023/05/21 02:20:10;;;;;;;15.52;9.23;;;12.60;99.90;;;;;;4984094;28;20045;-64
2023/05/21 02:22:43;;;;;;;16.15;9.15;;;12.60;99.90;;;;;;4972186;28;20025;-65
2023/05/21 02:25:10;;;;;;;15.63;8.63;;;12.60;99.90;;;;;;4987976;28;20117;-64
2023/05/21 02:27:37;;;;;;;20.38;9.70;;;12.50;99.90;;;;;;4987970;28;20041;-65
2023/05/21 02:30:05;;;;;;;17.45;9.43;;;12.60;99.90;;;;;;4987859;28;20034;-65
2023/05/21 02:32:31;;;;;;;15.10;8.77;;;12.60;99.90;;;;;;4969036;28;20030;-64
2023/05/21 02:34:57;;;;;;;16.58;9.77;;;12.60;99.90;;;;;;4990520;28;20034;-64
2023/05/21 02:37:26;;;;;;;15.43;9.40;;;12.60;99.90;;;;;;4983619;28;20038;-64
2023/05/21 02:39:52;;;;;;;15.85;8.80;;;12.70;99.90;;;;;;4987158;28;20030;-64
2023/05/21 02:42:18;;;;;;;17.60;9.73;;;12.70;99.90;;;;;;4976998;28;20027;-63
2023/05/21 02:44:43;;;;;;;19.58;9.48;;;12.60;99.90;;;;;;4975678;28;20038;-65
2023/05/21 02:47:09;;;;;;;16.38;8.32;;;12.60;99.90;;;;;;4970608;28;20037;-64
2023/05/21 02:49:35;;;;;;;16.45;9.43;;;12.60;99.90;;;;;;4990650;28;20429;-63
2023/05/21 02:52:00;;;;;;;17.95;9.00;;;12.60;99.90;;;;;;4988986;28;20035;-64
2023/05/21 02:54:26;;;;;;;18.33;9.85;;;12.70;99.90;;;;;;4987205;28;20672;-65
2023/05/21 02:56:51;;;;;;;15.77;9.80;;;12.60;99.90;;;;;;4985963;28;20034;-64
2023/05/21 02:59:17;;;;;;;14.98;9.07;;;12.60;99.90;;;;;;4989059;28;20760;-64
2023/05/21 03:01:43;;;;;;;14.82;8.93;;;12.60;99.90;;;;;;4989162;28;20026;-65
2023/05/21 03:04:09;;;;;;;18.92;8.48;;;12.60;99.90;;;;;;4986263;28;20404;-63
2023/05/21 03:06:35;;;;;;;16.55;8.57;;;12.60;99.90;;;;;;4984149;28;20034;-65
2023/05/21 03:09:02;;;;;;;15.05;8.82;;;12.60;99.90;;;;;;4982340;28;20458;-64
2023/05/21 03:11:27;;;;;;;19.73;9.13;;;12.60;99.90;;;;;;4986614;28;20038;-65
2023/05/21 03:13:53;;;;;;;18.88;9.18;;;12.60;99.90;;;;;;4973973;28;20046;-64
2023/05/21 03:16:19;;;;;;;13.45;8.27;;;12.60;99.90;;;;;;4970028;28;20118;-64
2023/05/21 03:18:44;;;;;;;14.95;8.95;;;12.60;99.90;;;;;;4985284;28;20152;-64
2023/05/21 03:21:12;;;;;;;14.75;8.68;;;12.60;99.90;;;;;;4985361;28;20050;-64
2023/05/21 03:23:38;;;;;;;16.83;8.88;;;12.60;99.90;;;;;;4985178;28;20035;-64
2023/05/21 03:26:04;;;;;;;19.45;9.68;;;12.60;99.90;;;;;;4982674;28;20027;-64
2023/05/21 03:28:30;;;;;;;21.83;8.82;;;12.70;99.90;;;;;;4983457;28;20129;-64
2023/05/21 03:30:55;;;;;;;13.32;8.82;;;12.70;99.90;;;;;;4987226;28;20026;-65
2023/05/21 03:33:21;;;;;;;14.40;8.80;;;12.60;99.90;;;;;;4987134;28;20435;-63
2023/05/21 03:35:47;;;;;;;14.43;8.18;;;12.60;99.90;;;;;;4987907;28;20061;-64
2023/05/21 03:38:13;;;;;;;17.52;8.43;;;12.60;99.90;;;;;;4989771;28;20034;-65
2023/05/21 03:40:38;;;;;;;18.65;8.68;;;12.60;99.90;;;;;;4990562;28;20042;-64
2023/05/21 03:43:04;;;;;;;14.63;8.27;;;12.60;99.90;;;;;;4990285;28;20018;-64
2023/05/21 03:45:29;;;;;;;15.77;9.38;;;12.60;99.90;;;;;;4988949;28;20026;-65
2023/05/21 03:47:55;;;;;;;14.90;8.68;;;12.60;99.90;;;;;;4990374;28;20022;-65
2023/05/21 03:50:21;;;;;;;24.88;9.65;;;12.60;99.90;;;;;;4971718;28;20058;-64
2023/05/21 03:52:46;;;;;;;15.20;8.82;;;12.60;99.90;;;;;;4988669;28;20391;-64
2023/05/21 03:55:12;;;;;;;14.65;8.25;;;12.60;99.90;;;;;;4981214;28;20120;-64
2023/05/21 03:57:38;;;;;;;17.55;9.73;;;12.60;99.90;;;;;;4986669;28;20040;-65
2023/05/21 04:00:05;;;;;;;15.18;8.80;;;12.60;99.90;;;;;;4988796;28;20046;-64
2023/05/21 04:02:31;;;;;;;15.15;8.88;;;12.60;99.90;;;;;;4987827;28;20031;-65
2023/05/21 04:04:56;;;;;;;13.85;8.77;;;12.60;99.90;;;;;;4987980;28;20038;-65
2023/05/21 04:07:22;;;;;;;18.25;8.85;;;12.60;99.90;;;;;;4987910;28;20537;-64
2023/05/21 04:09:48;;;;;;;13.63;8.00;;;12.70;99.90;;;;;;4987767;28;20106;-65
2023/05/21 04:12:14;;;;;;;13.18;7.97;;;12.70;99.90;;;;;;4988469;28;20109;-64
2023/05/21 04:14:40;;;;;;;13.30;8.77;;;12.70;99.90;;;;;;4973702;28;20165;-65
2023/05/21 04:17:05;;;;;;;16.05;8.65;;;12.70;99.90;;;;;;4991202;28;20034;-64
2023/05/21 04:19:31;;;;;;;16.58;9.10;;;12.70;99.90;;;;;;4988327;28;20035;-65
2023/05/21 04:21:57;;;;;;;12.80;8.55;;;12.70;99.90;;;;;;4990985;28;20034;-64
2023/05/21 04:24:23;;;;;;;16.05;9.10;;;12.80;99.90;;;;;;4989296;28;20023;-65
2023/05/21 04:26:49;;;;;;;13.52;8.07;;;12.80;99.90;;;;;;4988169;28;20567;-64
2023/05/21 04:29:19;;;;;;;17.20;9.25;;;12.80;99.90;;;;;;4991998;28;20042;-63
2023/05/21 04:31:48;;;;;;;15.65;9.25;;;12.80;99.90;;;;;;4990094;28;20400;-64
2023/05/21 04:34:16;;;;;;;14.52;7.90;;;12.80;99.90;;;;;;4990223;28;21014;-64
2023/05/21 04:36:44;;;;;;;14.95;9.02;;;12.80;99.90;;;;;;4976451;28;20042;-64
2023/05/21 04:39:11;;;;;;;16.20;9.18;;;12.80;99.90;;;;;;4992773;28;20400;-64
2023/05/21 04:41:37;;;;;;;15.50;8.02;;;12.90;99.90;;;;;;4992123;28;20026;-64
2023/05/21 04:44:06;;;;;;;15.70;8.73;;;12.90;99.90;;;;;;4992626;28;20400;-64
2023/05/21 04:46:31;;;;;;;14.10;9.32;;;12.90;99.90;;;;;;4988829;28;20037;-64
2023/05/21 04:49:01;;;;;;;15.98;7.93;;;13.00;99.90;;;;;;4990613;28;20031;-65
2023/05/21 04:51:27;;;;;;;19.25;8.55;;;13.00;99.90;;;;;;4991806;28;20030;-65
2023/05/21 04:53:53;;;;;;;11.63;7.55;;;13.00;99.90;;;;;;4975863;28;20113;-65
2023/05/21 04:56:18;;;;;;;15.82;8.10;;;13.00;99.90;;;;;;4990594;28;20108;-64
2023/05/21 04:58:46;;;;;;;12.35;8.48;;;13.00;99.90;;;;;;4989083;28;20045;-65
2023/05/21 05:01:12;;;;;;;14.25;8.23;;;13.10;99.90;;;;;;4987348;28;20117;-64
2023/05/21 05:03:38;;;;;;;14.90;7.78;;;13.10;99.90;;;;;;4986565;28;20160;-65
2023/05/21 05:06:03;;;;;;;15.80;8.27;;;13.10;99.90;;;;;;4988770;28;20022;-64
2023/05/21 05:08:29;;;;;;;16.08;9.68;;;13.20;99.90;;;;;;4990842;28;20030;-64
2023/05/21 05:10:55;;;;;;;15.60;8.48;;;13.20;99.90;;;;;;4990785;28;20022;-64
2023/05/21 05:13:20;;;;;;;13.20;8.32;;;13.30;99.90;;;;;;4991004;28;20037;-64
2023/05/21 05:15:46;;;;;;;13.63;7.85;;;13.30;99.90;;;;;;4971347;28;20098;-65
2023/05/21 05:18:12;;;;;;;12.13;7.88;;;13.30;99.90;;;;;;4989782;28;20038;-64
2023/05/21 05:20:37;;;;;;;14.27;9.00;;;13.30;99.90;;;;;;4985346;28;20029;-65
2023/05/21 05:23:03;;;;;;;16.38;7.75;;;13.40;99.90;;;;;;4990970;28;20448;-65
2023/05/21 05:25:29;;;;;;;13.15;7.63;;;13.50;99.90;;;;;;4990185;28;20031;-64
2023/05/21 05:27:54;;;;;;;11.57;8.68;;;13.50;99.90;;;;;;4988721;28;20026;-65
2023/05/21 05:30:20;;;;;;;12.43;7.72;;;13.50;99.90;;;;;;4988797;28;20018;-65
2023/05/21 05:32:46;;;;;;;14.88;7.82;;;13.50;99.90;;;;;;4988614;28;20038;-65
2023/05/21 05:35:11;;;;;;;14.75;8.52;;;13.60;99.90;;;;;;4990989;28;20045;-64
2023/05/21 05:37:37;;;;;;;11.75;7.65;;;13.70;99.90;;;;;;4990819;28;20057;-65
2023/05/21 05:40:04;;;;;;;16.35;7.60;;;13.70;99.90;;;;;;4990970;28;20050;-64
2023/05/21 05:42:30;;;;;;;13.48;8.55;;;13.80;99.90;;;;;;4987521;28;20022;-64
2023/05/21 05:44:55;;;;;;;11.70;6.95;;;14.00;99.90;;;;;;4991005;28;20027;-65
2023/05/21 05:47:21;;;;;;;12.77;7.75;;;14.10;99.90;;;;;;4989278;28;20096;-64
2023/05/21 05:49:47;;;;;;;18.63;8.35;;;14.10;99.90;;;;;;4991417;28;20018;-64
2023/05/21 05:52:13;;;;;;;15.50;8.27;;;14.20;99.90;;;;;;4992171;28;20030;-64
2023/05/21 05:54:38;;;;;;;11.90;7.68;;;14.20;99.90;;;;;;4991568;28;20030;-63
2023/05/21 05:57:04;;;;;;;16.75;8.93;;;14.30;99.90;;;;;;4974758;28;20031;-65
2023/05/21 05:59:32;;;;;;;14.38;8.27;;;14.30;99.90;;;;;;4990737;28;20065;-65
2023/05/21 06:01:58;;;;;;;12.90;7.88;;;14.40;99.90;;;;;;4987981;28;20392;-64
2023/05/21 06:04:24;;;;;;;11.75;7.95;;;14.40;99.90;;;;;;4985330;28;20448;-64
2023/05/21 06:06:51;;;;;;;13.45;8.07;;;14.40;99.90;;;;;;4985517;28;20481;-64
2023/05/21 06:09:17;;;;;;;11.48;7.40;;;14.40;99.90;;;;;;4989310;28;20030;-64
2023/05/21 06:11:42;;;;;;;12.70;7.57;;;14.50;99.90;;;;;;4991382;28;20468;-65
2023/05/21 06:14:08;;;;;;;18.98;8.23;;;14.60;99.90;;;;;;4988820;28;20500;-65
2023/05/21 06:16:33;;;;;;;10.68;6.80;;;14.70;99.90;;;;;;4953178;28;20133;-64
2023/05/21 06:18:59;;;;;;;13.48;7.53;;;14.80;99.90;;;;;;4984081;28;20065;-65
2023/05/21 06:21:25;;;;;;;13.02;8.70;;;15.00;99.90;;;;;;4988533;28;20042;-65
2023/05/21 06:23:50;;;;;;;13.02;7.38;;;15.20;99.90;;;;;;4987081;28;20612;-65
2023/05/21 06:26:18;;;;;;;14.07;7.50;;;15.40;99.90;;;;;;4976806;28;20026;-64
2023/05/21 06:28:43;;;;;;;11.05;7.13;;;15.70;99.90;;;;;;4985576;28;20029;-65
2023/05/21 06:31:10;;;;;;;14.77;7.22;;;15.90;99.90;;;;;;4987962;28;20472;-65
2023/05/21 06:33:36;;;;;;;12.98;7.18;;;16.20;99.90;;;;;;4984602;28;20030;-64
2023/05/21 06:36:01;;;;;;;11.32;7.53;;;16.40;99.90;;;;;;4983549;28;20033;-64
2023/05/21 06:38:27;;;;;;;13.27;7.80;;;16.80;99.90;;;;;;4988644;28;20049;-64
2023/05/21 06:40:53;;;;;;;14.80;8.00;;;17.20;99.90;;;;;;4988908;28;20044;-65
2023/05/21 06:43:18;;;;;;;10.10;7.50;;;17.50;99.90;;;;;;4991050;28;20019;-65
2023/05/21 06:45:44;;;;;;;14.02;7.93;;;17.90;99.90;;;;;;4990363;28;20153;-65
2023/05/21 06:48:10;;;;;;;11.35;7.40;;;18.00;99.90;;;;;;4988442;28;20030;-65
2023/05/21 06:50:36;;;;;;;11.23;7.40;;;17.90;99.90;;;;;;4987535;28;20026;-65
2023/05/21 06:53:02;;;;;;;11.20;7.30;;;18.10;99.90;;;;;;4989277;28;20053;-64
2023/05/21 06:55:27;;;;;;;10.20;7.05;;;18.20;99.90;;;;;;4988920;28;20038;-64
2023/05/21 06:57:53;;;;;;;10.93;7.63;;;18.40;99.90;;;;;;4990126;28;20400;-66
2023/05/21 07:00:19;;;;;;;10.65;7.47;;;18.60;99.90;;;;;;4986869;28;20023;-65
2023/05/21 07:02:44;;;;;;;17.88;7.72;;;19.00;99.90;;;;;;4984654;28;20408;-65
2023/05/21 07:05:10;;;;;;;10.18;6.70;;;19.40;99.90;;;;;;4985172;28;20022;-64
2023/05/21 07:07:35;;;;;;;12.10;6.65;;;19.90;99.90;;;;;;4969078;28;20080;-64
2023/05/21 07:10:01;;;;;;;8.50;6.00;;;20.60;99.90;;;;;;4986755;28;20037;-65
2023/05/21 07:12:27;;;;;;;11.43;6.85;;;21.30;99.30;;;;;;4986144;28;20022;-65
2023/05/21 07:14:52;;;;;;;9.23;6.25;;;21.10;98.50;;;;;;4972427;28;20053;-65
2023/05/21 07:17:18;;;;;;;8.65;5.78;;;21.20;98.10;;;;;;4985093;28;20030;-64
2023/05/21 07:19:43;;;;;;;11.02;6.45;;;20.80;98.70;;;;;;4980563;28;20135;-66
2023/05/21 07:22:11;;;;;;;10.20;6.38;;;20.60;98.70;;;;;;4988106;28;20106;-65
2023/05/21 07:24:37;;;;;;;10.45;6.32;;;20.60;99.90;;;;;;4989170;28;20644;-65
2023/05/21 07:27:03;;;;;;;8.75;5.90;;;20.60;99.90;;;;;;4986728;28;20062;-65
2023/05/21 07:29:28;;;;;;;9.70;6.43;;;20.60;99.70;;;;;;4990210;28;20724;-65
2023/05/21 07:31:54;;;;;;;12.75;6.35;;;20.80;99.00;;;;;;4987736;28;20038;-65
2023/05/21 07:34:20;;;;;;;12.18;6.38;;;21.20;99.40;;;;;;4985192;28;20034;-65
2023/05/21 07:36:46;;;;;;;9.13;6.38;;;22.00;98.80;;;;;;4989920;28;20423;-65
2023/05/21 07:39:11;;;;;;;8.80;6.03;;;23.60;96.40;;;;;;4971296;28;20125;-64
2023/05/21 07:41:37;;;;;;;11.75;5.78;;;23.80;95.30;;;;;;4971896;28;20030;-66
2023/05/21 07:44:03;;;;;;;6.90;4.97;;;24.80;95.40;;;;;;4989429;28;20039;-65
2023/05/21 07:46:28;;;;;;;6.63;5.38;;;25.70;92.70;;;;;;4986553;28;20551;-66
2023/05/21 07:48:54;;;;;;;9.35;5.88;;;25.30;92.60;;;;;;4976066;28;20488;-65
2023/05/21 07:51:19;;;;;;;7.53;5.32;;;25.00;92.90;;;;;;4992499;28;20026;-65
2023/05/21 07:53:45;;;;;;;7.55;5.10;;;24.50;93.30;;;;;;4993956;28;20508;-65
2023/05/21 07:56:11;;;;;;;7.30;5.13;;;24.20;93.90;;;;;;4980302;28;20026;-65
2023/05/21 07:58:36;;;;;;;11.02;5.30;;;24.70;93.20;;;;;;4994401;28;20026;-65
2023/05/21 08:01:02;;;;;;;10.32;5.45;;;25.30;93.10;;;;;;4987863;28;20064;-66
2023/05/21 08:03:29;;;;;;;6.82;5.65;;;25.60;92.70;;;;;;4989806;28;20530;-66
2023/05/21 08:05:55;;;;;;;9.18;5.32;;;25.40;91.20;;;;;;4985148;28;20034;-65
2023/05/21 08:08:21;;;;;;;9.15;5.35;;;25.50;91.80;;;;;;4991518;28;20026;-65
2023/05/21 08:10:47;;;;;;;9.55;5.80;;;26.00;90.60;;;;;;4981803;28;20751;-66
2023/05/21 08:13:14;;;;;;;9.55;5.05;;;26.60;90.40;;;;;;4984594;28;20033;-66
2023/05/21 08:15:39;;;;;;;7.55;5.57;;;26.80;89.00;;;;;;4972302;28;20031;-66
2023/05/21 08:18:05;;;;;;;8.32;5.18;;;27.00;89.60;;;;;;4991345;28;20084;-66
2023/05/21 08:20:34;;;;;;;7.38;5.30;;;27.50;85.90;;;;;;4971035;28;20050;-65
2023/05/21 08:23:00;;;;;;;6.63;5.18;;;27.40;88.40;;;;;;4991580;28;20117;-65
2023/05/21 08:25:26;;;;;;;8.20;5.55;;;27.80;86.20;;;;;;4991087;28;20397;-65
2023/05/21 08:27:52;;;;;;;7.65;5.72;;;27.90;84.60;;;;;;4988614;28;20065;-66
2023/05/21 08:30:17;;;;;;;8.27;6.20;;;27.10;85.70;;;;;;4992161;28;20076;-63
2023/05/21 08:32:43;;;;;;;8.80;5.75;;;26.40;87.50;;;;;;4976701;28;20033;-64
2023/05/21 08:35:09;;;;;;;8.55;6.35;;;25.60;88.60;;;;;;4989918;28;20031;-64
2023/05/21 08:37:34;;;;;;;8.85;5.68;;;25.20;90.40;;;;;;4990481;28;20118;-65
2023/05/21 08:40:00;;;;;;;9.68;5.25;;;24.40;91.30;;;;;;4991604;28;20030;-65
2023/05/21 08:42:31;;;;;;;12.15;5.45;;;24.10;91.90;;;;;;4992825;28;20467;-65
2023/05/21 08:44:59;;;;;;;7.07;4.68;;;24.10;92.10;;;;;;4990626;28;20029;-65
2023/05/21 08:47:26;;;;;;;10.73;5.50;;;24.30;92.50;;;;;;4991062;28;20491;-66
2023/05/21 08:49:53;;;;;;;7.25;5.22;;;24.10;92.30;;;;;;4989949;28;20547;-65
2023/05/21 08:52:20;;;;;;;9.93;5.30;;;24.40;92.20;;;;;;4991039;28;20528;-66
2023/05/21 08:54:49;;;;;;;9.63;5.47;;;23.90;92.40;;;;;;4986175;28;20045;-65
2023/05/21 08:57:17;;;;;;;9.75;4.63;;;23.80;92.70;;;;;;4990367;28;20037;-64
2023/05/21 08:59:43;;;;;;;8.05;5.40;;;24.10;92.80;;;;;;4982643;28;20022;-64
2023/05/21 09:02:13;;;;;;;6.72;5.22;;;24.20;92.60;;;;;;4989458;28;20031;-67
2023/05/21 09:04:40;;;;;;;9.50;5.13;;;24.30;93.00;;;;;;4982067;28;21928;-65
2023/05/21 09:07:09;;;;;;;9.32;6.00;;;24.20;92.80;;;;;;4990934;28;20936;-65
2023/05/21 09:09:50;;;;;;;7.63;4.80;;;24.50;92.20;;;;;;4984271;28;20034;-65
2023/05/21 09:12:16;;;;;;;8.25;4.95;;;24.80;92.10;;;;;;4984194;28;20428;-64
2023/05/21 09:14:42;;;;;;;9.20;5.72;;;25.00;92.10;;;;;;4981853;28;20037;-63
2023/05/21 09:17:07;;;;;;;8.20;5.82;;;25.40;91.40;;;;;;4975155;28;20047;-65
2023/05/21 09:19:33;;;;;;;8.13;5.53;;;25.90;89.70;;;;;;4966415;28;20625;-65
2023/05/21 09:22:04;;;;;;;8.02;5.45;;;26.20;90.40;;;;;;4975411;28;20026;-65
2023/05/21 09:24:31;;;;;;;10.70;6.18;;;26.70;88.30;;;;;;4988943;28;20029;-66
2023/05/21 09:26:57;;;;;;;9.70;6.07;;;27.50;86.70;;;;;;4989725;28;20042;-65
2023/05/21 09:29:25;;;;;;;9.88;6.88;;;27.90;85.80;;;;;;4988104;28;20030;-64
2023/05/21 09:31:50;;;;;;;7.15;5.47;;;27.70;84.60;;;;;;4988960;28;20026;-66
2023/05/21 09:34:16;;;;;;;8.85;6.10;;;28.40;84.00;;;;;;4986726;28;20642;-65
2023/05/21 09:36:45;;;;;;;9.57;6.38;;;28.10;82.80;;;;;;4977066;28;20037;-63
2023/05/21 09:39:26;;;;;;;11.98;6.75;;;27.40;85.10;;;;;;4974342;28;20022;-63
2023/05/21 09:41:51;;;;;;;7.70;6.28;;;27.70;84.20;;;;;;4989232;28;20100;-62
2023/05/21 09:44:17;;;;;;;9.60;6.03;;;28.40;83.80;;;;;;4989331;28;20093;-64
2023/05/21 09:46:42;;;;;;;8.75;6.18;;;28.30;84.80;;;;;;4991395;28;20488;-64
2023/05/21 09:49:25;;;;;;;10.82;6.60;;;28.40;83.20;;;;;;4990157;28;20045;-64
2023/05/21 09:51:54;;;;;;;8.32;6.43;;;28.30;82.80;;;;;;4971364;28;20026;-64
2023/05/21 09:54:21;;;;;;;11.45;7.28;;;28.00;83.20;;;;;;4988726;28;20520;-64
2023/05/21 09:56:46;;;;;;;9.63;6.68;;;27.40;84.00;;;;;;4990450;28;20368;-64
2023/05/21 09:59:12;;;;;;;7.82;6.03;;;27.50;84.20;;;;;;4988305;28;20034;-64
2023/05/21 10:01:38;;;;;;;10.48;6.72;;;27.20;88.10;;;;;;4988294;28;20022;-64
2023/05/21 10:04:07;;;;;;;9.63;6.80;;;27.60;86.10;;;;;;4985785;28;20026;-63
2023/05/21 10:06:41;;;;;;;8.18;6.68;;;28.00;85.40;;;;;;4985942;28;20026;-63
2023/05/21 10:09:10;;;;;;;8.43;6.28;;;27.90;83.50;;;;;;4987901;28;20112;-62
2023/05/21 10:11:36;;;;;;;9.63;7.15;;;27.90;84.70;;;;;;4986229;28;20481;-64
2023/05/21 10:14:06;;;;;;;9.93;6.70;;;27.50;84.10;;;;;;4985458;28;20034;-64
2023/05/21 10:16:33;;;;;;;8.50;5.82;;;27.40;86.20;;;;;;4971874;28;20127;-64
2023/05/21 10:18:59;;;;;;;10.38;7.22;;;27.50;85.40;;;;;;4987934;28;20392;-64
2023/05/21 10:21:29;;;;;;;10.27;7.35;;;27.50;84.90;;;;;;4988595;28;20022;-63
2023/05/21 10:23:56;;;;;;;12.30;6.68;;;27.60;84.60;;;;;;4989365;28;20105;-63
2023/05/21 10:26:25;;;;;;;9.75;6.63;;;27.50;84.40;;;;;;4989183;28;20026;-64
2023/05/21 10:28:51;;;;;;;10.18;7.03;;;27.20;85.10;;;;;;4987684;28;20364;-64
2023/05/21 10:31:17;;;;;;;8.95;6.47;;;26.90;87.00;;;;;;4984182;28;20015;-62
2023/05/21 10:33:43;;;;;;;10.18;6.72;;;26.90;88.30;;;;;;4985013;28;20479;-63
2023/05/21 10:36:09;;;;;;;9.90;6.85;;;26.70;88.60;;;;;;4987865;28;21712;-64
2023/05/21 10:38:36;;;;;;;9.07;6.55;;;26.80;86.50;;;;;;4989833;28;20022;-64
2023/05/21 10:41:05;;;;;;;9.85;6.82;;;26.80;86.40;;;;;;4989484;28;20026;-64
2023/05/21 10:43:43;;;;;;;9.63;6.07;;;26.60;88.60;;;;;;4988474;28;20476;-63
2023/05/21 10:46:23;;;;;;;12.02;6.65;;;26.30;88.70;;;;;;4983525;28;20041;-63
2023/05/21 10:49:16;;;;;;;13.63;7.20;;;26.40;88.30;;;;;;4985212;28;20018;-64
2023/05/21 10:52:12;;;;;;;10.75;7.07;;;26.50;88.40;;;;;;4985612;28;20118;-64
2023/05/21 10:55:00;;;;;;;9.48;7.15;;;26.30;90.60;;;;;;4984668;28;20058;-65
2023/05/21 10:57:47;;;;;;;13.05;6.72;;;26.40;89.20;;;;;;4985230;28;20022;-65
2023/05/21 11:00:16;;;;;;;7.90;5.80;;;26.80;87.60;;;;;;4980590;28;20061;-63
2023/05/21 11:02:44;;;;;;;9.98;6.70;;;26.60;88.10;;;;;;4986822;28;20061;-64
2023/05/21 11:05:09;;;;;;;8.50;6.32;;;26.80;87.40;;;;;;4984341;28;20310;-64
2023/05/21 11:07:57;;;;;;;9.85;7.07;;;26.70;86.80;;;;;;4987027;28;20050;-63
2023/05/21 11:10:39;;;;;;;9.15;6.65;;;26.90;86.30;;;;;;4988042;28;20033;-64
2023/05/21 11:13:11;;;;;;;10.32;6.85;;;26.60;86.50;;;;;;4987761;28;20037;-64
2023/05/21 11:16:04;;;;;;;9.07;6.97;;;26.40;87.50;;;;;;4986412;28;20026;-64
2023/05/21 11:18:36;;;;;;;10.93;6.68;;;26.10;87.40;;;;;;4980198;28;20042;-63
2023/05/21 11:21:27;;;;;;;10.10;6.38;;;26.10;88.30;;;;;;4982810;28;20042;-63
2023/05/21 11:23:57;;;;;;;9.50;6.50;;;26.20;87.50;;;;;;4981553;28;20022;-63
2023/05/21 11:26:24;;;;;;;10.27;6.53;;;26.20;88.30;;;;;;4989162;28;20038;-63
2023/05/21 11:29:05;;;;;;;8.63;6.18;;;26.20;90.40;;;;;;4990452;28;20029;-62
2023/05/21 11:31:37;;;;;;;9.32;6.15;;;26.50;90.20;;;;;;4986234;28;20026;-64
2023/05/21 11:34:12;;;;;;;9.48;6.57;;;26.70;90.30;;;;;;4985769;28;20037;-63
2023/05/21 11:36:45;;;;;;;8.13;6.03;;;26.90;89.80;;;;;;4983107;28;20034;-64
2023/05/21 11:39:20;;;;;;;11.45;6.70;;;26.90;90.10;;;;;;4984203;28;20026;-63
2023/05/21 11:41:53;;;;;;;8.63;6.32;;;26.50;90.20;;;;;;4984349;28;20053;-63
2023/05/21 11:44:37;;;;;;;8.53;5.73;;;26.50;91.20;;;;;;4990256;28;20026;-63
2023/05/21 11:47:03;;;;;;;10.50;6.50;;;26.60;89.20;;;;;;4985948;28;20292;-63
2023/05/21 11:49:30;;;;;;;8.65;6.40;;;26.40;89.20;;;;;;4988708;28;20029;-64
2023/05/21 11:51:56;;;;;;;10.15;6.15;;;26.20;89.10;;;;;;4988905;28;20030;-63
2023/05/21 11:54:22;;;;;;;7.38;6.05;;;26.00;88.30;;;;;;4979883;28;20035;-63
2023/05/21 11:56:49;;;;;;;9.02;6.10;;;25.80;90.60;;;;;;4987026;28;20034;-64
2023/05/21 11:59:15;;;;;;;11.07;7.40;;;25.90;91.10;;;;;;4989040;28;20484;-62
2023/05/21 12:01:43;;;;;;;10.35;7.05;;;25.80;91.50;;;;;;4987868;28;20037;-64
2023/05/21 12:04:10;;;;;;;11.05;6.60;;;25.80;91.20;;;;;;4985278;28;20089;-64
2023/05/21 12:06:47;;;;;;;13.35;7.20;;;25.80;91.90;;;;;;4987612;28;20506;-63
2023/05/21 12:09:13;;;;;;;8.73;6.32;;;26.00;91.60;;;;;;4968359;28;20030;-63
2023/05/21 12:11:39;;;;;;;12.52;7.15;;;25.90;91.10;;;;;;4972840;28;20033;-64
2023/05/21 12:14:10;;;;;;;9.75;5.85;;;26.10;90.70;;;;;;4985586;28;20026;-64
2023/05/21 12:16:36;;;;;;;9.85;6.35;;;26.20;90.60;;;;;;4974530;28;20104;-64
2023/05/21 12:19:02;;;;;;;10.93;6.88;;;26.10;90.40;;;;;;4987057;28;20479;-64
2023/05/21 12:21:29;;;;;;;11.25;7.03;;;26.20;90.80;;;;;;4989528;28;20037;-64
2023/05/21 12:23:55;;;;;;;9.15;6.32;;;26.10;90.50;;;;;;4989239;28;20511;-64
2023/05/21 12:26:24;;;;;;;13.25;6.95;;;26.30;90.60;;;;;;4990272;28;20049;-64
2023/05/21 12:28:52;;;;;;;10.55;6.25;;;26.40;90.80;;;;;;4982159;28;20030;-64
2023/05/21 12:31:21;;;;;;;10.40;6.30;;;26.40;91.90;;;;;;4986461;28;20030;-65
2023/05/21 12:33:50;;;;;;;9.38;6.82;;;26.50;90.50;;;;;;4990980;28;20038;-64
2023/05/21 12:36:22;;;;;;;7.55;5.70;;;26.50;91.10;;;;;;4992568;28;20570;-64
2023/05/21 12:38:49;;;;;;;12.38;6.13;;;26.70;91.50;;;;;;4986026;28;20030;-64